Time;durP1;ratioP1;P1;durP2;ratioP2;P2;SDS_P1;SDS_P2;PMS_P1;PMS_P2;Temp;Humidity;BMP_temperature;BMP_pressure;BME280_temperature;BME280_humidity;BME280_pressure;Samples;Min_cycle;Max_cycle;Signal;HPM_P1;HPM_P2
2022/07/24 00:02:19;;;;;;;16.13;8.53;;;23.00;57.80;;;;;;5040548;28;20204;-92
2022/07/24 00:04:48;;;;;;;14.60;8.13;;;22.90;57.60;;;;;;5048046;28;20224;-93
2022/07/24 00:07:16;;;;;;;11.07;7.00;;;23.00;57.70;;;;;;5050315;28;20222;-93
2022/07/24 00:09:44;;;;;;;14.53;7.40;;;22.90;57.60;;;;;;5047647;28;20204;-92
2022/07/24 00:12:12;;;;;;;8.67;5.77;;;22.90;57.50;;;;;;5050228;28;20224;-93
2022/07/24 00:14:39;;;;;;;11.90;7.23;;;22.80;57.40;;;;;;5041297;28;20204;-93
2022/07/24 00:17:07;;;;;;;14.07;6.67;;;22.80;57.40;;;;;;5062258;28;20254;-93
2022/07/24 00:19:34;;;;;;;11.27;6.70;;;22.70;57.30;;;;;;5068232;28;20718;-93
2022/07/24 00:22:02;;;;;;;13.73;6.30;;;22.80;57.30;;;;;;5066514;28;20228;-92
2022/07/24 00:24:30;;;;;;;18.53;7.77;;;22.70;57.20;;;;;;5049277;28;20327;-92
2022/07/24 00:26:57;;;;;;;14.23;7.17;;;22.70;57.10;;;;;;5051907;28;20192;-93
2022/07/24 00:29:26;;;;;;;9.80;5.67;;;22.70;57.00;;;;;;5048103;28;20263;-92
2022/07/24 00:31:54;;;;;;;12.40;5.63;;;22.60;56.90;;;;;;5043060;28;20259;-92
2022/07/24 00:34:21;;;;;;;11.60;6.40;;;22.60;56.80;;;;;;5049094;28;20235;-93
2022/07/24 00:36:48;;;;;;;9.90;5.17;;;22.60;56.70;;;;;;5049123;28;20219;-92
2022/07/24 00:39:16;;;;;;;10.70;5.43;;;22.60;56.70;;;;;;5049009;28;20208;-93
2022/07/24 00:41:43;;;;;;;11.73;5.33;;;22.50;56.60;;;;;;5048147;28;20664;-93
2022/07/24 00:44:13;;;;;;;16.43;6.23;;;22.50;56.60;;;;;;5048179;28;20315;-93
2022/07/24 00:46:44;;;;;;;10.23;5.30;;;22.50;56.50;;;;;;5047359;28;20731;-92
2022/07/24 00:49:16;;;;;;;14.07;6.17;;;22.40;56.40;;;;;;5048226;28;20199;-93
2022/07/24 00:51:46;;;;;;;11.90;5.47;;;22.40;56.60;;;;;;5049212;28;20296;-93
2022/07/24 00:54:15;;;;;;;18.97;7.73;;;22.40;56.60;;;;;;5045267;28;20200;-92
2022/07/24 00:56:45;;;;;;;10.53;5.27;;;22.40;56.60;;;;;;5048684;28;20661;-92
2022/07/24 00:59:12;;;;;;;9.70;5.30;;;22.40;56.50;;;;;;5048633;28;20204;-93
2022/07/24 01:01:41;;;;;;;7.73;4.27;;;22.30;56.40;;;;;;5051080;28;20681;-93
2022/07/24 01:04:10;;;;;;;14.07;6.10;;;22.30;56.40;;;;;;5046697;28;20200;-92
2022/07/24 01:06:37;;;;;;;10.77;5.27;;;22.30;56.60;;;;;;5049806;28;20204;-93
2022/07/24 01:09:05;;;;;;;12.73;5.93;;;22.30;56.70;;;;;;5044654;28;20204;-93
2022/07/24 01:11:39;;;;;;;13.03;6.13;;;22.20;56.70;;;;;;5030369;28;20213;-90
2022/07/24 01:14:09;;;;;;;8.57;4.77;;;22.20;56.70;;;;;;5044346;28;20268;-94
2022/07/24 01:16:36;;;;;;;9.80;5.60;;;22.20;56.70;;;;;;5047474;28;20204;-93
2022/07/24 01:19:06;;;;;;;16.63;6.67;;;22.10;56.60;;;;;;5044712;28;20230;-91
2022/07/24 01:21:34;;;;;;;15.23;6.63;;;22.10;56.80;;;;;;5046806;28;20208;-91
2022/07/24 01:24:01;;;;;;;11.00;5.70;;;22.10;56.80;;;;;;5049076;28;20864;-93
2022/07/24 01:26:29;;;;;;;16.17;7.10;;;22.10;56.80;;;;;;5047846;28;20239;-91
2022/07/24 01:28:57;;;;;;;12.50;5.87;;;22.00;56.80;;;;;;5048861;28;20200;-93
2022/07/24 01:31:24;;;;;;;21.53;8.60;;;22.00;56.90;;;;;;5043167;28;20204;-92
2022/07/24 01:33:51;;;;;;;14.50;7.03;;;22.00;56.90;;;;;;5047733;28;20200;-93
2022/07/24 01:36:18;;;;;;;19.00;7.97;;;21.90;57.00;;;;;;5044488;28;20269;-93
2022/07/24 01:38:47;;;;;;;15.47;7.33;;;21.90;57.10;;;;;;5047720;28;20651;-93
2022/07/24 01:41:14;;;;;;;14.57;7.17;;;21.90;57.20;;;;;;5046573;28;20201;-92
2022/07/24 01:43:41;;;;;;;15.47;7.03;;;21.90;57.10;;;;;;5046166;28;20303;-94
2022/07/24 01:46:09;;;;;;;16.97;6.87;;;21.80;57.10;;;;;;5046461;28;20695;-93
2022/07/24 01:48:36;;;;;;;14.30;6.70;;;21.80;57.10;;;;;;5052728;28;20303;-93
2022/07/24 01:51:03;;;;;;;12.63;6.57;;;21.80;57.20;;;;;;5058451;28;20227;-93
2022/07/24 01:53:30;;;;;;;24.33;9.57;;;21.80;57.20;;;;;;5052318;28;20204;-93
2022/07/24 01:56:02;;;;;;;17.87;7.70;;;21.80;57.20;;;;;;5055938;28;20261;-92
2022/07/24 01:58:31;;;;;;;14.90;7.33;;;21.70;57.20;;;;;;5047837;28;20246;-92
2022/07/24 02:00:59;;;;;;;15.63;7.33;;;21.70;57.20;;;;;;5050465;28;20580;-91
2022/07/24 02:03:27;;;;;;;22.93;9.53;;;21.70;57.20;;;;;;5042257;28;20261;-93
2022/07/24 02:05:54;;;;;;;13.20;6.57;;;21.70;57.30;;;;;;5046019;28;20212;-91
2022/07/24 02:08:22;;;;;;;16.80;7.53;;;21.60;57.30;;;;;;5047272;28;20584;-93
2022/07/24 02:10:51;;;;;;;12.93;6.30;;;21.60;57.40;;;;;;5040493;28;20204;-93
2022/07/24 02:13:20;;;;;;;21.40;8.33;;;21.50;57.40;;;;;;5044363;28;20210;-93
2022/07/24 02:15:50;;;;;;;18.37;7.90;;;21.50;57.50;;;;;;5041244;28;20227;-91
2022/07/24 02:18:17;;;;;;;18.83;7.77;;;21.50;57.60;;;;;;5040472;28;20203;-93
2022/07/24 02:20:44;;;;;;;15.73;7.37;;;21.40;57.70;;;;;;5043769;28;20204;-92
2022/07/24 02:23:17;;;;;;;14.97;7.17;;;21.40;57.70;;;;;;5045233;28;20286;-92
2022/07/24 02:25:46;;;;;;;16.37;7.17;;;21.40;57.80;;;;;;5045084;28;20228;-93
2022/07/24 02:28:13;;;;;;;15.80;7.03;;;21.30;57.80;;;;;;5046602;28;20286;-93
2022/07/24 02:30:43;;;;;;;13.53;6.73;;;21.30;57.80;;;;;;5036976;28;20204;-91
2022/07/24 02:33:10;;;;;;;15.30;7.67;;;21.30;58.00;;;;;;5046741;28;20713;-91
2022/07/24 02:35:37;;;;;;;17.07;7.73;;;21.30;58.00;;;;;;5040623;28;20226;-91
2022/07/24 02:38:05;;;;;;;14.53;7.10;;;21.20;57.90;;;;;;5042860;28;20199;-91
2022/07/24 02:40:33;;;;;;;11.03;6.27;;;21.20;58.20;;;;;;5040340;28;20211;-91
2022/07/24 02:43:00;;;;;;;13.60;5.77;;;21.10;58.10;;;;;;5043642;28;20215;-90
2022/07/24 02:45:27;;;;;;;14.03;7.00;;;21.10;58.20;;;;;;5047569;28;20388;-92
2022/07/24 02:47:57;;;;;;;17.90;8.13;;;21.10;58.30;;;;;;5040068;28;20607;-91
2022/07/24 02:50:31;;;;;;;10.90;5.90;;;21.10;58.30;;;;;;5046663;28;20210;-93
2022/07/24 02:53:00;;;;;;;11.23;6.20;;;21.10;58.50;;;;;;5047451;28;20263;-91
2022/07/24 02:55:28;;;;;;;9.50;5.67;;;21.00;58.30;;;;;;5044460;28;20225;-91
2022/07/24 02:57:55;;;;;;;13.97;5.80;;;21.00;58.30;;;;;;5042152;28;20232;-91
2022/07/24 03:00:23;;;;;;;12.50;6.43;;;21.00;58.50;;;;;;5044800;28;20597;-91
2022/07/24 03:02:51;;;;;;;21.17;9.47;;;21.00;58.60;;;;;;5046113;28;20661;-90
2022/07/24 03:05:22;;;;;;;18.07;8.03;;;20.90;58.50;;;;;;5034758;28;20226;-91
2022/07/24 03:07:49;;;;;;;13.67;7.07;;;20.90;58.60;;;;;;5048290;28;20579;-90
2022/07/24 03:10:17;;;;;;;16.57;8.07;;;20.90;58.60;;;;;;5049563;28;20220;-91
2022/07/24 03:12:45;;;;;;;10.27;5.87;;;20.90;58.60;;;;;;5050003;28;21027;-90
2022/07/24 03:15:14;;;;;;;16.80;7.27;;;20.90;58.80;;;;;;5045965;28;20216;-91
2022/07/24 03:17:50;;;;;;;20.10;9.37;;;20.80;58.80;;;;;;5050225;28;21218;-91
2022/07/24 03:20:19;;;;;;;14.10;7.40;;;20.80;59.20;;;;;;5046018;28;20207;-91
2022/07/24 03:22:47;;;;;;;10.40;6.43;;;20.80;59.20;;;;;;5050306;28;20206;-91
2022/07/24 03:25:15;;;;;;;15.67;7.93;;;20.80;59.20;;;;;;5048695;28;20292;-90
2022/07/24 03:27:43;;;;;;;11.73;6.60;;;20.80;59.30;;;;;;5051705;28;20268;-91
2022/07/24 03:30:12;;;;;;;12.00;6.40;;;20.70;59.30;;;;;;5050304;28;20213;-92
2022/07/24 03:32:41;;;;;;;15.87;8.17;;;20.70;59.30;;;;;;5050799;28;20212;-91
2022/07/24 03:35:11;;;;;;;17.10;7.60;;;20.70;59.50;;;;;;5049748;28;20304;-91
2022/07/24 03:37:43;;;;;;;19.63;8.37;;;20.70;59.60;;;;;;5049191;28;20940;-90
2022/07/24 03:40:12;;;;;;;18.60;8.80;;;20.70;59.90;;;;;;5047782;28;20298;-91
2022/07/24 03:42:43;;;;;;;11.70;6.70;;;20.70;59.70;;;;;;5045770;28;20708;-91
2022/07/24 03:45:10;;;;;;;9.30;5.90;;;20.70;59.90;;;;;;5050639;28;20303;-91
2022/07/24 03:47:38;;;;;;;12.63;7.37;;;20.70;59.80;;;;;;5049111;28;20204;-91
2022/07/24 03:50:06;;;;;;;22.07;9.20;;;20.70;59.90;;;;;;5050641;28;20204;-91
2022/07/24 03:52:33;;;;;;;13.63;7.33;;;20.70;59.90;;;;;;5051130;28;20229;-91
2022/07/24 03:55:02;;;;;;;14.07;7.20;;;20.70;59.90;;;;;;5046882;28;20208;-92
2022/07/24 03:57:29;;;;;;;15.90;7.50;;;20.70;60.10;;;;;;5049900;28;20215;-92
2022/07/24 03:59:58;;;;;;;16.23;8.47;;;20.70;60.00;;;;;;5051760;28;20235;-92
2022/07/24 04:02:25;;;;;;;11.37;6.63;;;20.70;60.10;;;;;;5051242;28;20192;-92
2022/07/24 04:04:53;;;;;;;13.20;7.70;;;20.60;60.00;;;;;;5050122;28;20223;-92
2022/07/24 04:07:21;;;;;;;10.13;6.43;;;20.60;60.10;;;;;;5051434;28;20216;-92
2022/07/24 04:09:48;;;;;;;13.10;7.33;;;20.60;60.20;;;;;;5049895;28;20232;-91
2022/07/24 04:12:17;;;;;;;15.27;7.43;;;20.60;60.30;;;;;;5048637;28;20209;-91
2022/07/24 04:14:45;;;;;;;20.03;9.07;;;20.60;60.50;;;;;;5050233;28;20653;-92
2022/07/24 04:17:12;;;;;;;13.20;7.37;;;20.60;60.40;;;;;;5049493;28;20298;-92
2022/07/24 04:19:39;;;;;;;17.60;9.13;;;20.60;60.60;;;;;;5050092;28;20254;-92
2022/07/24 04:22:06;;;;;;;14.90;7.57;;;20.60;60.60;;;;;;5046152;28;20963;-92
2022/07/24 04:24:33;;;;;;;14.83;8.03;;;20.60;60.60;;;;;;5051331;28;20216;-93
2022/07/24 04:27:02;;;;;;;12.67;6.50;;;20.60;60.60;;;;;;5050764;28;20230;-91
2022/07/24 04:29:32;;;;;;;12.47;7.20;;;20.60;60.70;;;;;;5050314;28;20207;-91
2022/07/24 04:32:01;;;;;;;13.13;7.07;;;20.60;61.10;;;;;;5050057;28;20269;-92
2022/07/24 04:34:32;;;;;;;23.93;9.17;;;20.60;60.90;;;;;;5047354;28;20197;-91
2022/07/24 04:37:01;;;;;;;15.53;8.33;;;20.60;61.10;;;;;;5058878;28;20930;-93
2022/07/24 04:39:28;;;;;;;12.70;7.93;;;20.60;61.10;;;;;;5057764;28;20236;-90
2022/07/24 04:41:55;;;;;;;17.60;8.70;;;20.60;61.00;;;;;;5049507;28;20211;-93
2022/07/24 04:44:24;;;;;;;18.43;8.20;;;20.60;61.00;;;;;;5049938;28;20208;-92
2022/07/24 04:46:56;;;;;;;13.97;8.10;;;20.60;61.20;;;;;;5052504;28;20259;-92
2022/07/24 04:49:23;;;;;;;12.00;7.23;;;20.60;61.50;;;;;;5058385;28;20211;-92
2022/07/24 04:51:50;;;;;;;22.23;10.53;;;20.60;61.20;;;;;;5055037;28;20213;-93
2022/07/24 04:54:20;;;;;;;13.63;7.97;;;20.60;61.30;;;;;;5053516;28;20615;-92
2022/07/24 04:56:47;;;;;;;21.70;10.30;;;20.60;61.40;;;;;;5052490;28;20208;-92
2022/07/24 04:59:15;;;;;;;12.33;6.97;;;20.70;61.70;;;;;;5052287;28;20215;-92
2022/07/24 05:01:48;;;;;;;11.40;7.47;;;20.70;61.60;;;;;;5050354;28;20223;-93
2022/07/24 05:04:21;;;;;;;12.00;7.07;;;20.70;61.90;;;;;;5049123;28;20204;-92
2022/07/24 05:06:48;;;;;;;9.50;6.47;;;20.70;62.10;;;;;;5051453;28;20270;-92
2022/07/24 05:09:15;;;;;;;9.67;6.43;;;20.70;61.70;;;;;;5050724;28;20270;-93
2022/07/24 05:11:45;;;;;;;11.63;6.90;;;20.70;61.90;;;;;;5048924;28;20216;-93
2022/07/24 05:14:13;;;;;;;13.93;6.93;;;20.70;61.90;;;;;;5048456;28;20204;-93
2022/07/24 05:16:40;;;;;;;10.23;6.37;;;20.70;61.90;;;;;;5046297;28;20488;-92
2022/07/24 05:19:07;;;;;;;18.33;9.10;;;20.70;61.80;;;;;;5047507;28;20270;-93
2022/07/24 05:21:36;;;;;;;9.50;7.00;;;20.70;61.80;;;;;;5038656;28;20201;-93
2022/07/24 05:24:03;;;;;;;19.90;9.53;;;20.70;62.10;;;;;;5047544;28;20306;-92
2022/07/24 05:26:31;;;;;;;11.13;6.97;;;20.80;62.00;;;;;;5048292;28;20321;-93
2022/07/24 05:28:59;;;;;;;13.37;6.83;;;20.80;62.10;;;;;;5043777;28;20280;-92
2022/07/24 05:31:26;;;;;;;13.57;7.23;;;20.80;62.50;;;;;;5033289;28;20283;-93
2022/07/24 05:33:54;;;;;;;13.27;7.87;;;20.80;62.30;;;;;;5048072;28;20285;-90
2022/07/24 05:36:23;;;;;;;8.73;5.83;;;20.90;62.80;;;;;;5049487;28;20206;-92
2022/07/24 05:38:52;;;;;;;11.83;6.67;;;20.90;62.70;;;;;;5050715;28;20315;-92
2022/07/24 05:41:20;;;;;;;11.20;7.30;;;20.90;62.90;;;;;;5046440;28;20295;-92
2022/07/24 05:43:48;;;;;;;16.40;7.93;;;21.00;62.90;;;;;;5045306;28;20637;-92
2022/07/24 05:46:15;;;;;;;15.30;6.67;;;21.00;62.70;;;;;;5039050;28;20332;-92
2022/07/24 05:48:43;;;;;;;9.20;6.30;;;21.00;62.60;;;;;;5047360;28;20625;-91
2022/07/24 05:51:10;;;;;;;11.83;6.20;;;21.10;62.50;;;;;;5047763;28;20291;-91
2022/07/24 05:53:37;;;;;;;15.23;7.07;;;21.10;62.50;;;;;;5048051;28;20234;-93
2022/07/24 05:56:06;;;;;;;14.57;7.10;;;21.20;62.60;;;;;;5044351;28;20204;-91
2022/07/24 05:58:35;;;;;;;17.90;8.50;;;21.20;62.70;;;;;;5046606;28;20727;-92
2022/07/24 06:01:02;;;;;;;16.10;8.60;;;21.20;62.60;;;;;;5048347;28;20266;-90
2022/07/24 06:03:29;;;;;;;15.60;8.17;;;21.30;62.60;;;;;;5047894;28;20621;-92
2022/07/24 06:05:57;;;;;;;18.17;9.00;;;21.30;62.60;;;;;;5042889;28;20204;-91
2022/07/24 06:08:25;;;;;;;9.87;6.23;;;21.30;62.60;;;;;;5046575;28;20258;-92
2022/07/24 06:10:53;;;;;;;12.23;7.17;;;21.30;62.70;;;;;;5050507;28;20265;-92
2022/07/24 06:13:26;;;;;;;13.30;8.27;;;21.30;62.90;;;;;;5044890;28;20207;-92
2022/07/24 06:15:53;;;;;;;17.93;9.37;;;21.40;63.40;;;;;;5046107;28;20208;-93
2022/07/24 06:18:22;;;;;;;12.83;7.23;;;21.40;63.10;;;;;;5045985;28;20234;-92
2022/07/24 06:20:51;;;;;;;13.77;7.53;;;21.40;63.00;;;;;;5047198;28;20204;-91
2022/07/24 06:23:18;;;;;;;18.43;8.60;;;21.50;63.20;;;;;;5041547;28;20716;-90
2022/07/24 06:25:45;;;;;;;15.97;8.23;;;21.50;63.20;;;;;;5042054;28;20215;-90
2022/07/24 06:28:13;;;;;;;19.80;10.07;;;21.60;63.30;;;;;;5039005;28;21254;-92
2022/07/24 06:30:42;;;;;;;13.50;7.00;;;21.60;63.60;;;;;;5045144;28;20679;-92
2022/07/24 06:33:09;;;;;;;12.23;7.40;;;21.70;63.70;;;;;;5045893;28;20224;-91
2022/07/24 06:35:36;;;;;;;11.20;6.67;;;21.70;63.80;;;;;;5046387;28;20207;-91
2022/07/24 06:38:03;;;;;;;14.13;6.73;;;21.80;63.60;;;;;;5046483;28;20318;-93
2022/07/24 06:40:30;;;;;;;11.60;6.33;;;21.80;64.00;;;;;;5048007;28;20238;-93
2022/07/24 06:42:58;;;;;;;11.57;7.03;;;21.90;64.10;;;;;;5054513;28;20515;-92
2022/07/24 06:45:26;;;;;;;11.73;7.10;;;21.90;64.00;;;;;;5049490;28;20616;-90
2022/07/24 06:47:55;;;;;;;15.23;7.87;;;22.00;64.10;;;;;;5052193;28;20235;-93
2022/07/24 06:50:23;;;;;;;14.73;7.10;;;22.10;64.20;;;;;;5052474;28;20211;-95
2022/07/24 06:52:51;;;;;;;11.43;6.90;;;22.20;64.30;;;;;;5046763;28;20208;-92
2022/07/24 06:55:19;;;;;;;13.27;7.33;;;22.20;64.20;;;;;;5046439;28;20308;-91
2022/07/24 06:57:46;;;;;;;16.77;7.73;;;22.30;64.20;;;;;;5043798;28;20228;-91
2022/07/24 07:00:14;;;;;;;12.97;7.17;;;22.40;64.00;;;;;;5042206;28;20991;-92
2022/07/24 07:02:41;;;;;;;15.57;7.77;;;22.50;64.10;;;;;;5047166;28;20244;-93
2022/07/24 07:05:13;;;;;;;13.17;6.63;;;22.60;64.00;;;;;;5044118;28;20204;-90
2022/07/24 07:07:42;;;;;;;15.87;7.23;;;22.70;64.00;;;;;;5045618;28;20239;-90
2022/07/24 07:10:09;;;;;;;17.83;8.63;;;22.80;63.90;;;;;;5044780;28;20201;-90
2022/07/24 07:12:42;;;;;;;9.00;5.53;;;22.90;63.80;;;;;;5051646;28;20200;-93
2022/07/24 07:15:12;;;;;;;11.17;6.20;;;23.00;63.70;;;;;;5053037;28;20672;-93
2022/07/24 07:17:40;;;;;;;17.63;7.37;;;23.10;63.70;;;;;;5044924;28;20212;-94
2022/07/24 07:20:08;;;;;;;14.63;6.67;;;23.20;63.60;;;;;;5046476;28;20226;-94
2022/07/24 07:22:37;;;;;;;9.37;5.50;;;23.40;63.60;;;;;;5046167;28;20607;-92
2022/07/24 07:25:05;;;;;;;13.30;5.57;;;23.40;63.30;;;;;;5043534;28;20273;-94
2022/07/24 07:27:32;;;;;;;6.80;4.30;;;23.60;63.00;;;;;;5043285;28;20239;-93
2022/07/24 07:29:59;;;;;;;11.07;5.03;;;23.70;62.80;;;;;;5040739;28;20206;-90
2022/07/24 07:32:27;;;;;;;5.70;3.80;;;23.70;62.20;;;;;;5039530;28;20544;-92
2022/07/24 07:34:55;;;;;;;8.23;4.70;;;23.80;62.20;;;;;;5040230;28;20519;-93
2022/07/24 07:37:22;;;;;;;9.57;4.97;;;23.90;62.10;;;;;;5042248;28;20630;-94
2022/07/24 07:39:54;;;;;;;6.83;4.20;;;24.00;61.40;;;;;;5041419;28;20220;-92
2022/07/24 07:42:21;;;;;;;9.67;4.77;;;24.10;61.30;;;;;;5040480;28;20209;-90
2022/07/24 07:44:51;;;;;;;8.53;4.53;;;24.20;61.30;;;;;;5039937;28;20278;-91
2022/07/24 07:47:19;;;;;;;10.93;5.50;;;24.30;60.50;;;;;;5039372;28;20241;-90
2022/07/24 07:49:58;;;;;;;8.23;3.97;;;24.40;61.00;;;;;;5040975;28;20214;-92
2022/07/24 07:52:25;;;;;;;12.13;4.60;;;24.50;60.30;;;;;;5039982;28;20199;-90
2022/07/24 07:54:53;;;;;;;6.10;3.60;;;24.60;60.30;;;;;;5039763;28;20657;-90
2022/07/24 07:57:20;;;;;;;8.03;3.97;;;24.80;60.90;;;;;;5039582;28;20230;-93
2022/07/24 07:59:50;;;;;;;7.53;4.10;;;24.80;60.10;;;;;;5039290;28;20290;-94
2022/07/24 08:02:19;;;;;;;8.23;4.33;;;24.90;59.60;;;;;;5043399;28;20201;-94
2022/07/24 08:04:49;;;;;;;12.70;5.20;;;25.10;59.80;;;;;;5038347;28;20211;-92
2022/07/24 08:07:17;;;;;;;9.73;4.87;;;25.20;59.70;;;;;;5039654;28;20274;-92
2022/07/24 08:09:44;;;;;;;11.10;5.23;;;25.30;59.70;;;;;;5039344;28;20315;-92
2022/07/24 08:12:13;;;;;;;7.53;3.73;;;25.40;59.20;;;;;;5037919;28;20283;-92
2022/07/24 08:14:40;;;;;;;8.10;4.13;;;25.40;58.70;;;;;;5038483;28;20905;-91
2022/07/24 08:17:08;;;;;;;7.00;3.83;;;25.50;58.60;;;;;;5041926;28;20302;-91
2022/07/24 08:19:35;;;;;;;11.40;4.87;;;25.60;58.30;;;;;;5048333;28;20239;-91
2022/07/24 08:22:04;;;;;;;8.60;3.90;;;25.60;58.50;;;;;;5049944;28;20261;-93
2022/07/24 08:24:32;;;;;;;10.57;4.77;;;25.70;58.30;;;;;;5048693;28;20265;-90
2022/07/24 08:26:59;;;;;;;6.97;3.87;;;25.80;58.10;;;;;;5036373;28;20224;-91
2022/07/24 08:29:34;;;;;;;7.43;3.77;;;25.80;57.90;;;;;;5049679;28;20607;-92
2022/07/24 08:32:03;;;;;;;10.97;5.03;;;25.90;57.60;;;;;;5049564;28;20203;-92
2022/07/24 08:34:31;;;;;;;9.17;4.67;;;26.00;57.50;;;;;;5032609;28;20621;-91
2022/07/24 08:37:00;;;;;;;10.13;4.33;;;26.10;57.50;;;;;;5049386;28;20616;-93
2022/07/24 08:39:27;;;;;;;8.27;3.93;;;26.10;57.40;;;;;;5050088;28;20768;-93
2022/07/24 08:41:54;;;;;;;8.53;3.97;;;26.20;57.50;;;;;;5050510;28;20242;-91
2022/07/24 08:44:21;;;;;;;5.33;3.13;;;26.30;57.50;;;;;;5050872;28;20188;-93
2022/07/24 08:46:58;;;;;;;5.40;3.17;;;26.40;57.30;;;;;;5049998;28;20610;-93
2022/07/24 08:49:30;;;;;;;5.83;3.40;;;26.50;57.10;;;;;;5042486;28;20262;-90
2022/07/24 08:52:08;;;;;;;11.80;4.37;;;26.60;57.20;;;;;;5048508;28;20850;-92
2022/07/24 08:54:36;;;;;;;8.10;4.03;;;26.70;57.20;;;;;;5048229;28;20254;-93
2022/07/24 08:57:05;;;;;;;10.60;3.80;;;26.90;57.20;;;;;;5033191;28;20286;-93
2022/07/24 08:59:32;;;;;;;7.20;3.53;;;27.10;57.00;;;;;;5048980;28;20203;-95
2022/07/24 09:02:09;;;;;;;5.43;3.17;;;27.20;56.80;;;;;;5049636;28;20200;-93
2022/07/24 09:04:40;;;;;;;13.17;3.83;;;27.40;56.60;;;;;;5050062;28;20212;-91
2022/07/24 09:07:08;;;;;;;6.30;3.43;;;27.60;56.40;;;;;;5041560;28;20700;-92
2022/07/24 09:09:36;;;;;;;5.07;2.83;;;27.80;56.00;;;;;;5044926;28;20212;-94
2022/07/24 09:12:08;;;;;;;9.03;4.57;;;28.00;55.60;;;;;;5044466;28;20203;-92
2022/07/24 09:14:36;;;;;;;7.50;3.50;;;28.20;55.10;;;;;;5036578;28;20207;-92
2022/07/24 09:17:07;;;;;;;6.40;3.50;;;28.40;55.40;;;;;;5050423;28;20200;-93
2022/07/24 09:19:48;;;;;;;6.53;3.47;;;28.60;55.20;;;;;;5057651;28;20239;-91
2022/07/24 09:22:26;;;;;;;7.23;3.87;;;28.80;54.30;;;;;;5052075;28;20590;-92
2022/07/24 09:25:14;;;;;;;5.50;3.27;;;29.10;54.20;;;;;;5064717;28;20250;-91
2022/07/24 09:27:46;;;;;;;4.60;2.97;;;29.20;53.50;;;;;;5041166;28;20224;-91
2022/07/24 09:30:27;;;;;;;4.17;3.07;;;29.50;53.90;;;;;;5051674;28;20204;-92
2022/07/24 09:32:59;;;;;;;8.37;4.23;;;29.70;52.70;;;;;;5048292;28;20216;-92
2022/07/24 09:35:31;;;;;;;4.13;3.00;;;29.80;52.40;;;;;;5047961;28;20262;-91
2022/07/24 09:38:00;;;;;;;4.33;3.07;;;29.90;51.90;;;;;;5046870;28;20250;-92
2022/07/24 09:40:31;;;;;;;9.20;4.70;;;30.10;52.30;;;;;;5045296;28;20295;-92
2022/07/24 09:43:17;;;;;;;7.13;4.07;;;30.30;51.70;;;;;;5043297;28;20200;-93
2022/07/24 09:45:58;;;;;;;9.17;5.23;;;30.40;50.80;;;;;;5045898;28;20287;-92
2022/07/24 09:48:29;;;;;;;6.33;3.50;;;30.50;50.50;;;;;;5045515;28;20676;-93
2022/07/24 09:50:59;;;;;;;9.27;5.30;;;30.60;50.50;;;;;;5044372;28;20249;-92
2022/07/24 09:53:31;;;;;;;11.30;5.33;;;30.70;50.30;;;;;;5040501;28;20287;-92
2022/07/24 09:56:00;;;;;;;9.73;5.33;;;30.80;50.20;;;;;;5040574;28;20254;-92
2022/07/24 09:58:30;;;;;;;8.93;5.17;;;30.90;49.90;;;;;;5045098;28;20552;-92
2022/07/24 10:01:00;;;;;;;7.80;3.80;;;31.00;50.00;;;;;;5047506;28;20227;-92
2022/07/24 10:03:32;;;;;;;5.77;4.07;;;31.10;49.90;;;;;;5046102;28;20204;-92
2022/07/24 10:06:02;;;;;;;11.40;5.97;;;31.20;49.30;;;;;;5045266;28;21016;-93
2022/07/24 10:08:34;;;;;;;7.37;4.47;;;31.30;48.80;;;;;;5043046;28;20252;-91
2022/07/24 10:11:06;;;;;;;7.70;3.90;;;31.30;48.80;;;;;;5044446;28;20207;-93
2022/07/24 10:13:35;;;;;;;11.07;5.70;;;31.40;48.50;;;;;;5044780;28;22091;-91
2022/07/24 10:16:27;;;;;;;10.10;3.50;;;31.50;48.60;;;;;;5046310;28;20277;-91
2022/07/24 10:18:58;;;;;;;8.87;4.70;;;31.50;47.80;;;;;;5045893;28;20219;-92
2022/07/24 10:21:28;;;;;;;6.40;3.40;;;31.50;48.60;;;;;;5047744;28;20219;-93
2022/07/24 10:24:19;;;;;;;8.65;3.67;;;31.60;48.40;;;;;;5046817;28;20277;-92
2022/07/24 10:26:48;;;;;;;12.07;6.20;;;31.70;47.50;;;;;;5047592;28;20663;-95
2022/07/24 10:29:18;;;;;;;6.17;3.33;;;31.80;48.10;;;;;;5047229;28;20239;-92
2022/07/24 10:31:46;;;;;;;10.63;5.45;;;31.90;47.60;;;;;;5045664;28;20215;-91
2022/07/24 10:34:33;;;;;;;8.55;4.13;;;32.00;47.40;;;;;;5047327;28;20581;-93
2022/07/24 10:37:08;;;;;;;11.25;5.40;;;32.00;47.20;;;;;;5042761;28;20204;-92
2022/07/24 10:39:42;;;;;;;5.25;3.45;;;32.10;47.10;;;;;;5035752;28;20261;-92
2022/07/24 10:42:12;;;;;;;9.38;4.82;;;32.20;46.60;;;;;;5046860;28;20220;-92
2022/07/24 10:44:40;;;;;;;6.78;4.10;;;32.30;46.40;;;;;;5044588;28;20200;-92
2022/07/24 10:47:08;;;;;;;9.35;3.85;;;32.40;46.60;;;;;;5047617;28;20217;-93
2022/07/24 10:49:46;;;;;;;6.60;3.35;;;32.40;46.30;;;;;;5040992;28;20246;-95
2022/07/24 10:52:24;;;;;;;7.50;4.07;;;32.40;46.00;;;;;;5049793;28;20211;-92
2022/07/24 10:55:21;;;;;;;8.65;3.65;;;32.50;46.10;;;;;;5048691;28;20208;-94
2022/07/24 10:57:54;;;;;;;6.90;3.55;;;32.60;45.20;;;;;;5049879;28;20236;-91
2022/07/24 11:00:35;;;;;;;7.85;3.85;;;32.60;45.70;;;;;;5049782;28;20196;-92
2022/07/24 11:03:20;;;;;;;7.63;4.57;;;32.70;45.40;;;;;;5045947;28;20262;-92
2022/07/24 11:06:08;;;;;;;6.65;3.80;;;32.80;45.40;;;;;;5048719;28;20291;-93
2022/07/24 11:08:41;;;;;;;10.65;5.60;;;32.90;45.30;;;;;;5044841;28;20230;-90
2022/07/24 11:11:14;;;;;;;6.18;3.58;;;32.90;45.30;;;;;;5048950;28;20210;-93
2022/07/24 11:13:54;;;;;;;6.60;4.20;;;33.00;45.10;;;;;;5043394;28;20895;-96
2022/07/24 11:16:23;;;;;;;11.27;5.10;;;33.00;44.70;;;;;;5044956;28;20208;-94
2022/07/24 11:19:28;;;;;;;11.32;5.03;;;33.10;45.20;;;;;;5043690;28;20637;-95
2022/07/24 11:22:19;;;;;;;6.57;3.80;;;33.20;44.50;;;;;;5051415;28;20707;-95
2022/07/24 11:25:15;;;;;;;3.55;2.78;;;33.30;44.50;;;;;;5048835;28;20219;-94
2022/07/24 11:28:01;;;;;;;6.82;4.35;;;33.40;44.60;;;;;;5052984;28;20350;-94
2022/07/24 11:30:32;;;;;;;7.72;4.25;;;33.50;44.40;;;;;;5054428;28;20269;-93
2022/07/24 11:33:01;;;;;;;9.63;4.60;;;33.40;44.00;;;;;;5052403;28;20204;-93
2022/07/24 11:35:29;;;;;;;5.00;3.20;;;33.50;43.90;;;;;;5054022;28;20208;-94
2022/07/24 11:38:09;;;;;;;10.40;6.18;;;33.60;44.30;;;;;;5053067;28;20192;-93
2022/07/24 11:40:45;;;;;;;10.00;5.10;;;33.60;44.20;;;;;;5045343;28;20331;-94
2022/07/24 11:43:12;;;;;;;9.98;5.45;;;33.60;44.00;;;;;;5041976;28;20227;-94
2022/07/24 11:45:41;;;;;;;5.55;4.05;;;33.70;44.00;;;;;;5050370;28;20221;-93
2022/07/24 11:48:08;;;;;;;12.48;6.60;;;33.80;43.70;;;;;;5052273;28;20269;-91
2022/07/24 11:50:35;;;;;;;7.13;4.80;;;33.80;43.30;;;;;;5054834;28;20261;-95
2022/07/24 11:53:08;;;;;;;11.80;6.35;;;33.90;43.50;;;;;;5048850;28;20207;-95
2022/07/24 11:55:36;;;;;;;7.97;4.45;;;33.90;43.30;;;;;;5052824;28;20228;-92
2022/07/24 11:58:07;;;;;;;7.97;4.68;;;33.90;43.00;;;;;;5053439;28;20682;-94
2022/07/24 12:00:42;;;;;;;7.65;3.97;;;34.00;42.70;;;;;;5053369;28;20269;-95
2022/07/24 12:03:10;;;;;;;6.95;4.50;;;34.00;42.70;;;;;;5052680;28;20203;-94
2022/07/24 12:05:44;;;;;;;5.07;3.67;;;34.10;43.00;;;;;;5054330;28;20224;-95
2022/07/24 12:08:26;;;;;;;5.78;4.15;;;34.10;42.90;;;;;;5055813;28;20222;-94
2022/07/24 12:10:56;;;;;;;11.15;5.72;;;34.20;43.60;;;;;;5049503;28;20561;-91
2022/07/24 12:13:25;;;;;;;6.22;3.47;;;34.30;42.60;;;;;;5053826;28;20254;-92
2022/07/24 12:15:58;;;;;;;6.55;3.90;;;34.40;42.50;;;;;;5053898;28;20466;-96
2022/07/24 12:18:25;;;;;;;15.60;5.97;;;34.50;42.60;;;;;;5052833;28;20253;-93
2022/07/24 12:21:00;;;;;;;8.43;4.03;;;34.50;42.50;;;;;;5035943;28;20212;-94
2022/07/24 12:23:30;;;;;;;4.55;3.20;;;34.60;42.00;;;;;;5034566;28;20192;-94
2022/07/24 12:26:00;;;;;;;5.93;3.78;;;34.70;41.90;;;;;;5051780;28;20736;-95
2022/07/24 12:28:30;;;;;;;6.78;3.30;;;34.70;41.70;;;;;;5055297;28;20287;-93
2022/07/24 12:31:06;;;;;;;6.18;4.10;;;34.80;42.20;;;;;;5052533;28;20280;-93
2022/07/24 12:33:35;;;;;;;10.40;5.78;;;34.80;42.40;;;;;;5050708;28;20266;-91
2022/07/24 12:36:08;;;;;;;9.90;4.95;;;34.90;41.90;;;;;;5049058;28;20215;-91
2022/07/24 12:41:22;;;;;;;13.15;6.72;;;35.10;41.60;;;;;;5045111;28;20200;-92
2022/07/24 12:43:54;;;;;;;5.70;4.25;;;35.20;41.40;;;;;;5049936;28;20196;-92
2022/07/24 12:46:30;;;;;;;7.53;4.75;;;35.20;41.60;;;;;;5049613;28;20551;-90
2022/07/24 12:48:59;;;;;;;7.25;4.65;;;35.30;41.40;;;;;;5047672;28;20793;-93
2022/07/24 12:51:26;;;;;;;9.73;5.90;;;35.40;41.50;;;;;;5049209;28;20219;-93
2022/07/24 12:53:56;;;;;;;7.35;4.93;;;35.50;41.10;;;;;;5047494;28;20961;-92
2022/07/24 12:56:30;;;;;;;10.30;5.47;;;35.60;40.90;;;;;;5044218;28;20209;-93
2022/07/24 12:59:01;;;;;;;15.77;9.05;;;35.60;40.70;;;;;;5038556;28;20197;-91